createdAt,value
2024-01-18T00:01:54.375Z,69.60
2024-01-18T00:04:20.991Z,69.26
2024-01-18T00:06:47.798Z,69.24
2024-01-18T00:09:14.337Z,68.61
2024-01-18T00:11:40.789Z,69.09
2024-01-18T00:14:07.250Z,69.00
2024-01-18T00:16:33.680Z,69.12
2024-01-18T00:19:01.827Z,68.58
2024-01-18T00:21:28.568Z,67.94
2024-01-18T00:23:55.115Z,67.95
2024-01-18T00:26:21.584Z,68.10
2024-01-18T00:28:48.226Z,67.81
2024-01-18T00:31:14.985Z,68.00
2024-01-18T00:33:41.489Z,68.16
2024-01-18T00:36:10.464Z,68.64
2024-01-18T00:38:36.945Z,69.23
2024-01-18T00:41:03.686Z,68.91
2024-01-18T00:43:30.111Z,69.25
2024-01-18T00:45:56.575Z,68.65
2024-01-18T00:48:23.251Z,67.87
2024-01-18T00:50:49.796Z,68.13
2024-01-18T00:53:17.525Z,67.94
2024-01-18T00:55:43.923Z,67.42
2024-01-18T00:58:10.379Z,67.76
2024-01-18T01:00:37.008Z,67.76
2024-01-18T01:03:03.677Z,67.23
2024-01-18T01:05:30.093Z,67.82
2024-01-18T01:07:56.553Z,68.12
2024-01-18T01:10:24.615Z,68.09
2024-01-18T01:12:51.037Z,67.98
2024-01-18T01:15:17.852Z,67.98
2024-01-18T01:17:44.446Z,67.15
2024-01-18T01:20:11.593Z,67.90
2024-01-18T01:22:38.077Z,67.71
2024-01-18T01:25:05.324Z,67.63
2024-01-18T01:27:33.171Z,67.49
2024-01-18T01:29:59.810Z,67.46
2024-01-18T01:32:26.251Z,67.48
2024-01-18T01:34:52.733Z,67.47
2024-01-18T01:37:19.538Z,68.31
2024-01-18T01:39:45.938Z,67.95
2024-01-18T01:42:12.445Z,68.14
2024-01-18T01:44:40.194Z,67.53
2024-01-18T01:47:06.639Z,67.71
2024-01-18T01:49:33.244Z,67.48
2024-01-18T01:51:59.743Z,68.03
2024-01-18T01:54:27.307Z,67.88
2024-01-18T01:56:55.306Z,67.58
2024-01-18T01:59:26.273Z,67.19
2024-01-18T02:01:54.177Z,67.47
2024-01-18T02:04:21.817Z,67.26
2024-01-18T02:06:52.067Z,67.35
2024-01-18T02:09:19.417Z,66.89
2024-01-18T02:11:46.018Z,66.75
2024-01-18T02:14:13.180Z,67.12
2024-01-18T02:16:39.865Z,66.35
2024-01-18T02:19:07.751Z,66.52
2024-01-18T02:21:34.422Z,66.45
2024-01-18T02:24:11.798Z,66.91
2024-01-18T02:26:39.558Z,66.81
2024-01-18T02:29:06.049Z,66.31
2024-01-18T02:31:32.456Z,66.48
2024-01-18T02:33:59.305Z,66.53
2024-01-18T02:36:26.387Z,66.30
2024-01-18T02:38:53.055Z,66.43
2024-01-18T02:41:20.073Z,65.54
2024-01-18T02:43:48.113Z,65.66
2024-01-18T02:46:16.744Z,66.29
2024-01-18T02:48:44.151Z,66.04
2024-01-18T02:51:10.623Z,65.46
2024-01-18T02:53:37.070Z,66.00
2024-01-18T02:56:03.997Z,66.24
2024-01-18T02:58:30.394Z,65.74
2024-01-18T03:00:58.178Z,65.82
2024-01-18T03:03:24.727Z,66.09
2024-01-18T03:05:51.166Z,65.63
2024-01-18T03:08:17.954Z,65.89
2024-01-18T03:10:44.391Z,65.15
2024-01-18T03:13:10.819Z,65.31
2024-01-18T03:15:37.274Z,65.30
2024-01-18T03:18:05.610Z,66.00
2024-01-18T03:20:32.533Z,65.90
2024-01-18T03:22:58.961Z,66.21
2024-01-18T03:25:25.394Z,66.31
2024-01-18T03:27:51.821Z,65.90
2024-01-18T03:30:18.289Z,65.71
2024-01-18T03:32:44.827Z,66.30
2024-01-18T03:35:12.636Z,66.74
2024-01-18T03:37:39.042Z,66.52
2024-01-18T03:40:06.787Z,66.16
2024-01-18T03:42:33.469Z,66.52
2024-01-18T03:44:59.986Z,66.44
2024-01-18T03:47:26.493Z,66.25
2024-01-18T03:49:53.063Z,66.45
2024-01-18T03:52:21.021Z,66.44
2024-01-18T03:54:47.642Z,66.19
2024-01-18T03:57:14.279Z,66.54
2024-01-18T03:59:40.768Z,66.13
2024-01-18T04:02:07.316Z,65.83
2024-01-18T04:04:33.852Z,66.49
2024-01-18T04:07:00.465Z,66.34
2024-01-18T04:09:28.297Z,66.04
2024-01-18T04:11:54.856Z,65.31
2024-01-18T04:14:21.421Z,65.85
2024-01-18T04:16:47.830Z,65.56
2024-01-18T04:19:14.389Z,66.20
2024-01-18T04:21:40.975Z,66.06
2024-01-18T04:24:07.638Z,66.13
2024-01-18T04:26:35.489Z,65.86
2024-01-18T04:29:02.062Z,65.49
2024-01-18T04:31:28.496Z,65.41
2024-01-18T04:33:55.916Z,65.24
2024-01-18T04:36:22.415Z,65.39
2024-01-18T04:38:49.172Z,65.90
2024-01-18T04:41:15.566Z,65.82
2024-01-18T04:43:43.332Z,65.33
2024-01-18T04:46:10.176Z,65.99
2024-01-18T04:48:37.269Z,66.12
2024-01-18T04:51:04.247Z,66.57
2024-01-18T04:53:30.849Z,66.03
2024-01-18T04:55:57.484Z,65.80
2024-01-18T04:58:23.954Z,65.81
2024-01-18T05:00:51.848Z,65.50
2024-01-18T05:03:18.521Z,64.82
2024-01-18T05:05:45.210Z,65.41
2024-01-18T05:08:11.883Z,65.33
2024-01-18T05:10:38.354Z,65.50
2024-01-18T05:13:05.058Z,65.13
2024-01-18T05:15:31.735Z,65.20
2024-01-18T05:18:01.705Z,65.05
2024-01-18T05:20:28.524Z,65.43
2024-01-18T05:22:55.082Z,65.66
2024-01-18T05:25:21.611Z,65.10
2024-01-18T05:27:48.030Z,65.34
2024-01-18T05:30:14.746Z,65.35
2024-01-18T05:32:41.245Z,65.79
2024-01-18T05:35:09.328Z,65.60
2024-01-18T05:37:35.904Z,65.66
2024-01-18T05:40:02.348Z,66.06
2024-01-18T05:42:28.948Z,65.64
2024-01-18T05:44:55.461Z,65.84
2024-01-18T05:47:21.943Z,65.69
2024-01-18T05:49:48.402Z,65.52
2024-01-18T05:52:16.326Z,65.89
2024-01-18T05:54:42.882Z,65.65
2024-01-18T05:57:09.371Z,66.31
2024-01-18T05:59:35.800Z,66.11
2024-01-18T06:02:02.309Z,66.93
2024-01-18T06:04:28.879Z,66.90
2024-01-18T06:06:55.488Z,67.25
2024-01-18T06:09:23.435Z,67.07
2024-01-18T06:11:50.526Z,66.79
2024-01-18T06:14:16.940Z,67.06
2024-01-18T06:16:43.403Z,67.05
2024-01-18T06:19:11.233Z,66.83
2024-01-18T06:21:38.910Z,66.12
2024-01-18T06:24:06.221Z,66.06
2024-01-18T06:26:34.062Z,66.08
2024-01-18T06:29:00.575Z,66.58
2024-01-18T06:31:27.337Z,66.70
2024-01-18T06:33:54.171Z,67.16
2024-01-18T06:36:20.633Z,67.35
2024-01-18T06:38:47.116Z,68.74
2024-01-18T06:41:13.553Z,67.77
2024-01-18T06:43:41.303Z,67.70
2024-01-18T06:46:14.557Z,67.61
2024-01-18T06:48:41.071Z,67.52
2024-01-18T06:51:07.499Z,67.20
2024-01-18T06:53:34.116Z,67.43
2024-01-18T06:56:00.605Z,67.23
2024-01-18T06:58:27.194Z,67.35
2024-01-18T07:00:55.065Z,67.45
2024-01-18T07:03:21.600Z,67.51
2024-01-18T07:05:48.044Z,67.27
2024-01-18T07:08:14.542Z,66.91
2024-01-18T07:10:40.994Z,67.74
2024-01-18T07:13:07.408Z,67.64
2024-01-18T07:15:34.011Z,67.79
2024-01-18T07:18:01.907Z,68.16
2024-01-18T07:20:29.819Z,68.28
2024-01-18T07:22:56.297Z,68.37
2024-01-18T07:25:22.733Z,68.33
2024-01-18T07:27:49.275Z,68.61
2024-01-18T07:30:15.990Z,68.67
2024-01-18T07:32:42.499Z,68.91
2024-01-18T07:35:10.300Z,68.84
2024-01-18T07:37:37.436Z,68.69
2024-01-18T07:40:04.652Z,69.04
2024-01-18T07:42:31.143Z,69.25
2024-01-18T07:44:57.720Z,69.06
2024-01-18T07:47:24.183Z,68.75
2024-01-18T07:49:50.961Z,68.81
2024-01-18T07:52:19.307Z,68.75
2024-01-18T07:54:45.827Z,68.83
2024-01-18T07:57:12.540Z,68.85
2024-01-18T07:59:38.960Z,68.44
2024-01-18T08:02:05.450Z,68.90
2024-01-18T08:04:31.879Z,68.70
2024-01-18T08:07:00.667Z,68.81
2024-01-18T08:09:28.972Z,68.81
2024-01-18T08:11:55.393Z,68.40
2024-01-18T08:14:21.871Z,69.24
2024-01-18T08:16:48.314Z,68.60
2024-01-18T08:19:14.900Z,68.55
2024-01-18T08:21:44.980Z,68.53
2024-01-18T08:24:12.086Z,68.54
2024-01-18T08:26:42.119Z,68.62
2024-01-18T08:29:09.084Z,68.90
2024-01-18T08:31:35.480Z,69.23
2024-01-18T08:34:02.021Z,68.64
2024-01-18T08:36:28.534Z,67.78
2024-01-18T08:38:54.975Z,67.63
2024-01-18T08:41:21.461Z,67.35
2024-01-18T08:43:49.352Z,66.82
2024-01-18T08:46:15.797Z,66.42
2024-01-18T08:48:42.636Z,66.61
2024-01-18T08:51:09.309Z,66.19
2024-01-18T08:53:36.013Z,66.01
2024-01-18T08:56:02.706Z,66.01
2024-01-18T08:58:30.555Z,65.16
2024-01-18T09:00:58.378Z,65.51
2024-01-18T09:03:24.916Z,65.57
2024-01-18T09:05:56.972Z,65.91
2024-01-18T09:08:23.605Z,65.42
2024-01-18T09:10:50.238Z,65.91
2024-01-18T09:13:19.727Z,65.69
2024-01-18T09:15:46.859Z,66.50
2024-01-18T09:18:14.766Z,66.02
2024-01-18T09:20:41.480Z,66.48
2024-01-18T09:23:13.044Z,66.31
2024-01-18T09:25:40.113Z,65.89
2024-01-18T09:28:07.089Z,65.53
2024-01-18T09:30:33.625Z,65.73
2024-01-18T09:33:00.139Z,65.79
2024-01-18T09:35:28.038Z,65.83
2024-01-18T09:37:54.508Z,65.30
2024-01-18T09:40:21.235Z,65.03
2024-01-18T09:42:48.714Z,64.71
2024-01-18T09:45:15.652Z,64.78
2024-01-18T09:47:45.538Z,64.38
2024-01-18T09:50:12.576Z,63.97
2024-01-18T09:52:40.334Z,64.81
2024-01-18T09:55:07.570Z,65.18
2024-01-18T09:57:39.546Z,64.65
2024-01-18T10:00:12.936Z,64.83
2024-01-18T10:02:39.889Z,65.23
2024-01-18T10:05:08.158Z,65.42
2024-01-18T10:07:34.774Z,64.78
2024-01-18T10:10:02.729Z,65.00
2024-01-18T10:12:31.262Z,64.31
2024-01-18T10:14:57.887Z,63.29
2024-01-18T10:17:24.744Z,63.73
2024-01-18T10:19:51.411Z,63.76
2024-01-18T10:22:21.798Z,63.11
2024-01-18T10:24:48.498Z,64.12
2024-01-18T10:27:19.139Z,63.47
2024-01-18T10:29:45.557Z,62.81
2024-01-18T10:32:12.013Z,63.27
2024-01-18T10:34:39.130Z,62.75
2024-01-18T10:37:06.507Z,62.65
2024-01-18T10:39:39.142Z,63.00
2024-01-18T10:42:07.361Z,62.39
2024-01-18T10:44:38.885Z,62.58
2024-01-18T10:47:08.919Z,62.61
2024-01-18T10:49:36.792Z,63.64
2024-01-18T10:52:03.892Z,63.00
2024-01-18T10:54:36.237Z,63.37
2024-01-18T10:57:04.712Z,62.81
2024-01-18T10:59:32.022Z,62.01
2024-01-18T11:02:01.190Z,62.26
2024-01-18T11:04:29.103Z,62.38
2024-01-18T11:06:56.710Z,62.53
2024-01-18T11:09:25.844Z,62.68
2024-01-18T11:11:53.539Z,61.63
2024-01-18T11:14:20.475Z,62.00
2024-01-18T11:16:47.140Z,61.46
2024-01-18T11:19:18.405Z,61.90
2024-01-18T11:21:44.965Z,61.76
2024-01-18T11:24:11.811Z,61.61
2024-01-18T11:26:38.378Z,62.25
2024-01-18T11:29:17.212Z,61.95
2024-01-18T11:31:47.008Z,61.79
2024-01-18T11:34:25.784Z,61.24
2024-01-18T11:36:52.284Z,60.87
2024-01-18T11:39:56.424Z,60.21
2024-01-18T11:42:24.994Z,60.19
2024-01-18T11:44:55.750Z,61.58
2024-01-18T11:47:23.143Z,61.13
2024-01-18T11:49:51.096Z,60.49
2024-01-18T11:52:17.788Z,60.19
2024-01-18T11:54:47.887Z,59.94
2024-01-18T11:57:14.485Z,60.04
2024-01-18T11:59:41.467Z,59.85
2024-01-18T12:02:08.042Z,59.18
2024-01-18T12:04:34.822Z,59.90
2024-01-18T12:07:03.439Z,59.29
2024-01-18T12:09:30.136Z,59.50
2024-01-18T12:11:57.767Z,59.32
2024-01-18T12:14:24.452Z,59.54
2024-01-18T12:16:51.013Z,59.33
2024-01-18T12:19:30.374Z,59.52
2024-01-18T12:21:57.042Z,59.86
2024-01-18T12:24:25.452Z,59.48
2024-01-18T12:26:51.969Z,59.10
2024-01-18T12:29:19.707Z,59.33
2024-01-18T12:31:46.701Z,59.53
2024-01-18T12:34:13.311Z,59.61
2024-01-18T12:36:40.276Z,59.54
2024-01-18T12:39:07.208Z,59.36
2024-01-18T12:41:34.988Z,59.28
2024-01-18T12:44:05.367Z,59.21
2024-01-18T12:46:31.910Z,59.91
2024-01-18T12:48:58.645Z,59.15
2024-01-18T12:51:25.192Z,59.12
2024-01-18T12:53:53.676Z,59.88
2024-01-18T12:56:20.565Z,59.47
2024-01-18T12:58:48.533Z,58.84
2024-01-18T13:01:36.175Z,58.63
2024-01-18T13:04:13.774Z,58.14
2024-01-18T13:06:50.611Z,58.48
2024-01-18T13:09:24.328Z,58.27
2024-01-18T13:11:51.110Z,58.85
2024-01-18T13:14:19.303Z,57.85
2024-01-18T13:16:47.348Z,58.01
2024-01-18T13:19:15.274Z,58.24
2024-01-18T13:21:42.680Z,58.10
2024-01-18T13:24:09.566Z,57.88
2024-01-18T13:26:37.194Z,56.79
2024-01-18T13:29:03.982Z,57.42
2024-01-18T13:31:31.940Z,57.52
2024-01-18T13:33:58.541Z,56.92
2024-01-18T13:36:25.520Z,55.95
2024-01-18T13:38:52.027Z,56.12
2024-01-18T13:41:19.045Z,55.78
2024-01-18T13:43:48.123Z,55.21
2024-01-18T13:46:15.177Z,54.37
2024-01-18T13:48:43.704Z,53.82
2024-01-18T13:51:10.414Z,53.66
2024-01-18T13:53:37.709Z,53.19
2024-01-18T13:56:04.612Z,52.36
2024-01-18T13:58:31.095Z,51.51
2024-01-18T14:00:57.658Z,51.56
2024-01-18T14:03:24.093Z,51.70
2024-01-18T14:05:52.209Z,52.12
2024-01-18T14:08:18.663Z,51.72
2024-01-18T14:10:45.073Z,50.81
2024-01-18T14:13:11.650Z,50.96
2024-01-18T14:15:38.091Z,51.76
2024-01-18T14:18:05.910Z,52.25
2024-01-18T14:20:32.694Z,52.87
2024-01-18T14:23:00.435Z,54.22
2024-01-18T14:25:27.182Z,55.45
2024-01-18T14:27:53.662Z,55.16
2024-01-18T14:30:20.188Z,54.56
2024-01-18T14:32:47.644Z,54.86
2024-01-18T14:35:14.176Z,54.57
2024-01-18T14:37:40.665Z,55.36
2024-01-18T14:40:10.339Z,55.24
2024-01-18T14:42:36.857Z,55.37
2024-01-18T14:45:05.876Z,54.81
2024-01-18T14:47:32.325Z,54.33
2024-01-18T14:49:58.859Z,54.30
2024-01-18T14:52:25.487Z,55.20
2024-01-18T14:54:52.904Z,54.72
2024-01-18T14:57:22.152Z,54.43
2024-01-18T14:59:48.690Z,54.41
2024-01-18T15:02:15.846Z,54.82
2024-01-18T15:04:42.456Z,54.60
2024-01-18T15:07:09.731Z,54.49
2024-01-18T15:09:36.673Z,54.70
2024-01-18T15:12:04.263Z,54.48
2024-01-18T15:14:34.564Z,55.29
2024-01-18T15:17:02.318Z,54.96
2024-01-18T15:19:28.870Z,54.80
2024-01-18T15:21:55.510Z,54.48
2024-01-18T15:24:22.052Z,55.08
2024-01-18T15:26:49.754Z,54.75
2024-01-18T15:29:16.241Z,54.69
2024-01-18T15:31:44.161Z,55.60
2024-01-18T15:34:10.915Z,56.44
2024-01-18T15:36:40.913Z,56.66
2024-01-18T15:39:07.560Z,57.82
2024-01-18T15:41:34.137Z,57.81
2024-01-18T15:44:00.577Z,57.96
2024-01-18T15:46:27.148Z,58.07
2024-01-18T15:48:55.123Z,58.47
2024-01-18T15:51:21.792Z,58.78
2024-01-18T15:53:48.218Z,60.48
2024-01-18T15:56:14.623Z,60.11
2024-01-18T15:58:41.191Z,59.46
2024-01-18T16:01:10.616Z,58.56
2024-01-18T16:03:37.245Z,58.70
2024-01-18T16:06:06.946Z,58.39
2024-01-18T16:08:33.570Z,58.38
2024-01-18T16:11:02.732Z,58.35
2024-01-18T16:13:29.538Z,58.04
2024-01-18T16:15:57.028Z,57.62
2024-01-18T16:18:23.913Z,57.52
2024-01-18T16:20:50.383Z,57.55
2024-01-18T16:23:18.434Z,57.25
2024-01-18T16:25:44.985Z,57.54
2024-01-18T16:28:11.426Z,57.89
2024-01-18T16:30:37.883Z,57.69
2024-01-18T16:33:04.484Z,57.85
2024-01-18T16:35:31.015Z,58.06
2024-01-18T16:37:57.543Z,57.96
2024-01-18T16:40:25.375Z,57.81
2024-01-18T16:42:51.834Z,57.99
2024-01-18T16:45:18.347Z,58.60
2024-01-18T16:47:44.770Z,58.84
2024-01-18T16:50:11.219Z,59.05
2024-01-18T16:52:37.628Z,59.16
2024-01-18T16:55:04.925Z,59.43
2024-01-18T16:57:33.563Z,59.73
2024-01-18T17:00:00.817Z,59.49
2024-01-18T17:02:27.468Z,59.21
2024-01-18T17:04:54.080Z,59.36
2024-01-18T17:07:20.591Z,59.34
2024-01-18T17:09:47.617Z,59.35
2024-01-18T17:12:14.473Z,59.17
2024-01-18T17:14:42.572Z,59.51
2024-01-18T17:17:09.255Z,59.63
2024-01-18T17:19:35.695Z,59.70
2024-01-18T17:22:02.140Z,59.80
2024-01-18T17:24:28.725Z,59.66
2024-01-18T17:26:55.285Z,59.31
2024-01-18T17:29:22.220Z,59.58
2024-01-18T17:31:49.972Z,59.89
2024-01-18T17:34:16.442Z,59.78
2024-01-18T17:36:42.875Z,59.40
2024-01-18T17:39:09.277Z,59.64
2024-01-18T17:41:35.745Z,59.85
2024-01-18T17:44:03.003Z,59.71
2024-01-18T17:46:29.433Z,59.63
2024-01-18T17:48:59.058Z,59.76
2024-01-18T17:51:25.891Z,59.96
2024-01-18T17:53:52.615Z,60.24
2024-01-18T17:56:19.289Z,60.40
2024-01-18T17:58:45.741Z,60.60
2024-01-18T18:01:12.464Z,60.69
2024-01-18T18:03:39.025Z,60.80
2024-01-18T18:06:07.906Z,60.84
2024-01-18T18:08:34.553Z,61.20
2024-01-18T18:11:03.173Z,61.08
2024-01-18T18:13:30.058Z,61.36
2024-01-18T18:15:56.728Z,61.88
2024-01-18T18:18:23.385Z,62.19
2024-01-18T18:20:49.906Z,62.63
2024-01-18T18:23:18.199Z,63.22
2024-01-18T18:25:44.832Z,63.29
2024-01-18T18:28:11.258Z,63.93
2024-01-18T18:30:41.308Z,64.03
2024-01-18T18:33:20.335Z,64.33
2024-01-18T18:35:46.841Z,64.53
2024-01-18T18:38:18.558Z,64.50
2024-01-18T18:40:49.113Z,64.89
2024-01-18T18:43:15.953Z,65.17
2024-01-18T18:45:42.537Z,65.45
2024-01-18T18:48:09.084Z,65.78
2024-01-18T18:50:35.641Z,66.10
2024-01-18T18:53:02.555Z,66.33
2024-01-18T18:55:29.002Z,66.39
2024-01-18T18:57:56.784Z,66.66
2024-01-18T19:00:23.264Z,66.45
2024-01-18T19:02:49.812Z,66.63
2024-01-18T19:05:16.489Z,66.44
2024-01-18T19:07:44.237Z,66.24
2024-01-18T19:10:10.812Z,66.36
2024-01-18T19:12:37.287Z,66.41
2024-01-18T19:15:06.157Z,65.85
2024-01-18T19:17:32.669Z,65.37
2024-01-18T19:19:59.183Z,65.51
2024-01-18T19:22:25.675Z,64.88
2024-01-18T19:24:54.104Z,64.54
2024-01-18T19:27:20.563Z,64.58
2024-01-18T19:29:47.959Z,64.92
2024-01-18T19:32:15.764Z,64.96
2024-01-18T19:34:42.250Z,65.13
2024-01-18T19:37:08.785Z,64.94
2024-01-18T19:39:40.506Z,64.51
2024-01-18T19:42:07.447Z,64.53
2024-01-18T19:44:34.167Z,63.46
2024-01-18T19:47:02.340Z,64.35
2024-01-18T19:49:30.404Z,64.42
2024-01-18T19:51:57.015Z,64.65
2024-01-18T19:54:23.571Z,64.89
2024-01-18T19:56:50.224Z,65.90
2024-01-18T19:59:16.851Z,65.92
2024-01-18T20:01:43.485Z,66.27
2024-01-18T20:04:10.039Z,66.86
2024-01-18T20:06:37.990Z,67.14
2024-01-18T20:09:04.524Z,67.58
2024-01-18T20:11:30.958Z,67.93
2024-01-18T20:13:57.504Z,67.69
2024-01-18T20:16:23.968Z,67.85
2024-01-18T20:18:52.269Z,68.03
2024-01-18T20:21:19.012Z,68.12
2024-01-18T20:23:46.972Z,68.15
2024-01-18T20:26:14.061Z,68.55
2024-01-18T20:28:41.846Z,68.31
2024-01-18T20:31:08.647Z,68.62
2024-01-18T20:33:35.539Z,68.70
2024-01-18T20:36:02.553Z,68.91
2024-01-18T20:38:34.810Z,69.10
2024-01-18T20:41:02.641Z,69.05
2024-01-18T20:43:29.494Z,69.34
2024-01-18T20:45:55.958Z,69.28
2024-01-18T20:48:22.580Z,69.51
2024-01-18T20:50:49.213Z,70.31
2024-01-18T20:53:15.873Z,70.09
2024-01-18T20:55:45.489Z,69.66
2024-01-18T20:58:13.915Z,69.93
2024-01-18T21:00:40.465Z,69.74
2024-01-18T21:03:07.580Z,70.01
2024-01-18T21:05:34.301Z,69.86
2024-01-18T21:08:00.943Z,69.63
2024-01-18T21:10:27.414Z,70.28
2024-01-18T21:12:53.818Z,70.74
2024-01-18T21:15:21.897Z,70.65
2024-01-18T21:17:48.774Z,70.78
2024-01-18T21:20:15.706Z,70.75
2024-01-18T21:22:42.413Z,70.86
2024-01-18T21:25:10.079Z,70.71
2024-01-18T21:27:36.562Z,70.78
2024-01-18T21:30:03.478Z,70.63
2024-01-18T21:32:32.275Z,70.75
2024-01-18T21:34:58.861Z,70.76
2024-01-18T21:37:25.321Z,70.61
2024-01-18T21:39:51.736Z,71.03
2024-01-18T21:42:20.950Z,70.85
2024-01-18T21:44:48.257Z,70.51
2024-01-18T21:47:15.217Z,70.66
2024-01-18T21:49:43.342Z,71.04
2024-01-18T21:52:11.252Z,70.60
2024-01-18T21:54:38.073Z,71.11
2024-01-18T21:57:07.917Z,71.01
2024-01-18T21:59:40.007Z,70.79
2024-01-18T22:02:11.919Z,71.41
2024-01-18T22:04:38.626Z,71.06
2024-01-18T22:07:06.839Z,71.27
2024-01-18T22:09:40.898Z,71.43
2024-01-18T22:12:08.740Z,71.15
2024-01-18T22:14:35.233Z,71.58
2024-01-18T22:17:01.695Z,71.86
2024-01-18T22:19:40.049Z,71.87
2024-01-18T22:22:14.715Z,71.76
2024-01-18T22:24:41.149Z,72.45
2024-01-18T22:27:07.608Z,72.21
2024-01-18T22:29:34.178Z,71.72
2024-01-18T22:32:02.684Z,71.87
2024-01-18T22:34:29.164Z,71.90
2024-01-18T22:36:55.642Z,72.04
2024-01-18T22:39:24.049Z,72.05
2024-01-18T22:41:50.597Z,71.98
2024-01-18T22:44:17.034Z,71.50
2024-01-18T22:46:44.282Z,71.45
2024-01-18T22:49:10.856Z,71.13
2024-01-18T22:51:37.835Z,70.85
2024-01-18T22:54:04.348Z,70.54
2024-01-18T22:56:32.306Z,69.95
2024-01-18T22:58:58.762Z,69.91
2024-01-18T23:01:25.474Z,69.98
2024-01-18T23:03:51.917Z,69.74
2024-01-18T23:06:18.541Z,69.75
2024-01-18T23:08:44.984Z,68.99
2024-01-18T23:11:11.615Z,69.70
2024-01-18T23:13:39.449Z,69.72
2024-01-18T23:16:07.036Z,69.16
2024-01-18T23:18:33.803Z,69.41
2024-01-18T23:21:02.313Z,69.39
2024-01-18T23:23:28.897Z,69.54
2024-01-18T23:25:55.358Z,69.43
2024-01-18T23:28:21.814Z,69.84
2024-01-18T23:30:49.562Z,70.11
2024-01-18T23:33:16.157Z,69.89
2024-01-18T23:35:43.059Z,70.68
2024-01-18T23:38:09.544Z,70.19
2024-01-18T23:40:35.947Z,70.16
2024-01-18T23:43:02.770Z,70.03
2024-01-18T23:45:29.185Z,70.23
2024-01-18T23:47:56.970Z,70.27
2024-01-18T23:50:23.397Z,70.52
2024-01-18T23:52:49.795Z,69.81
2024-01-18T23:55:16.213Z,69.77
2024-01-18T23:57:42.762Z,70.46
